createdAt,value
2023-03-16T00:00:24.064Z,1014.31
2023-03-16T00:01:24.105Z,1014.31
2023-03-16T00:02:24.184Z,1014.30
2023-03-16T00:03:24.223Z,1014.32
2023-03-16T00:04:24.139Z,1014.36
2023-03-16T00:05:24.153Z,1014.37
2023-03-16T00:06:25.758Z,1014.37
2023-03-16T00:07:24.184Z,1014.30
2023-03-16T00:08:24.199Z,1014.34
2023-03-16T00:09:24.217Z,1014.29
2023-03-16T00:10:24.235Z,1014.31
2023-03-16T00:11:24.248Z,1014.30
2023-03-16T00:12:24.274Z,1014.32
2023-03-16T00:13:24.278Z,1014.29
2023-03-16T00:14:24.302Z,1014.31
2023-03-16T00:15:24.317Z,1014.34
2023-03-16T00:16:24.428Z,1014.33
2023-03-16T00:17:24.346Z,1014.33
2023-03-16T00:18:24.372Z,1014.35
2023-03-16T00:19:24.383Z,1014.35
2023-03-16T00:20:24.472Z,1014.34
2023-03-16T00:21:24.415Z,1014.36
2023-03-16T00:22:24.433Z,1014.37
2023-03-16T00:23:24.448Z,1014.39
2023-03-16T00:24:24.460Z,1014.42
2023-03-16T00:25:24.538Z,1014.43
2023-03-16T00:26:24.506Z,1014.37
2023-03-16T00:27:24.518Z,1014.36
2023-03-16T00:28:24.526Z,1014.38
2023-03-16T00:29:24.551Z,1014.33
2023-03-16T00:30:24.558Z,1014.35
2023-03-16T00:31:24.608Z,1014.37
2023-03-16T00:32:24.638Z,1014.37
2023-03-16T00:33:24.621Z,1014.43
2023-03-16T00:34:24.636Z,1014.46
2023-03-16T00:35:24.640Z,1014.46
2023-03-16T00:36:24.650Z,1014.42
2023-03-16T00:37:24.691Z,1014.38
2023-03-16T00:38:24.688Z,1014.34
2023-03-16T00:39:24.705Z,1014.32
2023-03-16T00:40:24.824Z,1014.34
2023-03-16T00:41:24.729Z,1014.32
2023-03-16T00:42:24.749Z,1014.30
2023-03-16T00:43:24.766Z,1014.30
2023-03-16T00:44:24.777Z,1014.27
2023-03-16T00:45:24.807Z,1014.26
2023-03-16T00:46:24.860Z,1014.27
2023-03-16T00:47:24.838Z,1014.26
2023-03-16T00:48:24.847Z,1014.19
2023-03-16T00:49:24.863Z,1014.21
2023-03-16T00:50:24.881Z,1014.21
2023-03-16T00:51:24.897Z,1014.21
2023-03-16T00:52:24.915Z,1014.17
2023-03-16T00:53:24.934Z,1014.18
2023-03-16T00:54:24.945Z,1014.12
2023-03-16T00:55:24.958Z,1014.05
2023-03-16T00:56:24.975Z,1014.01
2023-03-16T00:57:24.994Z,1014.01
2023-03-16T00:58:25.011Z,1014.01
2023-03-16T00:59:25.023Z,1014.03
2023-03-16T01:00:25.337Z,1014.01
2023-03-16T01:01:25.109Z,1013.99
2023-03-16T01:02:25.082Z,1013.93
2023-03-16T01:03:25.155Z,1013.93
2023-03-16T01:04:25.118Z,1013.89
2023-03-16T01:05:25.123Z,1013.91
2023-03-16T01:06:25.141Z,1013.87
2023-03-16T01:07:25.160Z,1013.92
2023-03-16T01:08:25.172Z,1013.89
2023-03-16T01:09:25.204Z,1013.94
2023-03-16T01:10:25.203Z,1013.98
2023-03-16T01:11:25.220Z,1014.01
2023-03-16T01:12:25.234Z,1013.99
2023-03-16T01:13:25.256Z,1013.99
2023-03-16T01:14:25.274Z,1014.00
2023-03-16T01:15:25.293Z,1014.00
2023-03-16T01:16:25.370Z,1014.02
2023-03-16T01:17:25.313Z,1014.04
2023-03-16T01:18:25.331Z,1014.04
2023-03-16T01:19:25.348Z,1014.03
2023-03-16T01:20:25.562Z,1014.05
2023-03-16T01:21:25.382Z,1014.07
2023-03-16T01:22:25.407Z,1014.05
2023-03-16T01:23:25.412Z,1014.03
2023-03-16T01:24:25.430Z,1014.05
2023-03-16T01:25:25.449Z,1014.03
2023-03-16T01:26:25.457Z,1014.01
2023-03-16T01:27:25.473Z,1014.04
2023-03-16T01:28:25.490Z,1014.04
2023-03-16T01:29:25.509Z,1014.03
2023-03-16T01:30:25.953Z,1014.05
2023-03-16T01:31:25.553Z,1014.04
2023-03-16T01:32:25.571Z,1014.01
2023-03-16T01:33:25.572Z,1014.01
2023-03-16T01:34:25.587Z,1013.99
2023-03-16T01:35:25.637Z,1013.97
2023-03-16T01:36:25.653Z,1013.95
2023-03-16T01:37:25.636Z,1013.95
2023-03-16T01:38:25.659Z,1013.96
2023-03-16T01:39:25.686Z,1013.93
2023-03-16T01:40:25.953Z,1013.93
2023-03-16T01:41:25.695Z,1013.92
2023-03-16T01:42:25.717Z,1013.85
2023-03-16T01:43:25.746Z,1013.83
2023-03-16T01:44:25.744Z,1013.80
2023-03-16T01:45:25.766Z,1013.76
2023-03-16T01:46:25.811Z,1013.79
2023-03-16T01:47:25.912Z,1013.76
2023-03-16T01:48:25.833Z,1013.79
2023-03-16T01:49:25.833Z,1013.77
2023-03-16T01:50:26.235Z,1013.69
2023-03-16T01:51:25.853Z,1013.70
2023-03-16T01:52:25.881Z,1013.68
2023-03-16T01:53:25.915Z,1013.62
2023-03-16T01:54:25.904Z,1013.57
2023-03-16T01:55:25.919Z,1013.54
2023-03-16T01:56:25.935Z,1013.51
2023-03-16T01:57:25.952Z,1013.53
2023-03-16T01:58:25.969Z,1013.48
2023-03-16T01:59:25.982Z,1013.50
2023-03-16T02:00:26.126Z,1013.50
2023-03-16T02:01:26.187Z,1013.43
2023-03-16T02:02:26.035Z,1013.37
2023-03-16T02:03:26.049Z,1013.30
2023-03-16T02:04:26.099Z,1013.28
2023-03-16T02:05:26.079Z,1013.26
2023-03-16T02:06:26.107Z,1013.29
2023-03-16T02:07:26.118Z,1013.28
2023-03-16T02:08:26.129Z,1013.28
2023-03-16T02:09:26.150Z,1013.28
2023-03-16T02:10:26.688Z,1013.27
2023-03-16T02:11:26.173Z,1013.24
2023-03-16T02:12:26.193Z,1013.26
2023-03-16T02:13:26.226Z,1013.22
2023-03-16T02:14:26.228Z,1013.21
2023-03-16T02:15:26.250Z,1013.18
2023-03-16T02:16:26.254Z,1013.20
2023-03-16T02:17:26.275Z,1013.20
2023-03-16T02:18:26.294Z,1013.22
2023-03-16T02:19:26.300Z,1013.23
2023-03-16T02:20:26.657Z,1013.25
2023-03-16T02:21:26.331Z,1013.22
2023-03-16T02:22:26.349Z,1013.27
2023-03-16T02:23:26.359Z,1013.26
2023-03-16T02:24:26.379Z,1013.28
2023-03-16T02:25:26.392Z,1013.26
2023-03-16T02:26:26.409Z,1013.22
2023-03-16T02:27:26.432Z,1013.19
2023-03-16T02:28:26.441Z,1013.22
2023-03-16T02:29:26.458Z,1013.20
2023-03-16T02:30:26.722Z,1013.16
2023-03-16T02:31:26.568Z,1013.13
2023-03-16T02:32:26.525Z,1013.18
2023-03-16T02:33:26.537Z,1013.14
2023-03-16T02:34:26.539Z,1013.18
2023-03-16T02:35:26.601Z,1013.19
2023-03-16T02:36:26.578Z,1013.19
2023-03-16T02:37:26.588Z,1013.14
2023-03-16T02:38:26.622Z,1013.14
2023-03-16T02:39:26.624Z,1013.15
2023-03-16T02:40:27.023Z,1013.13
2023-03-16T02:41:26.645Z,1013.16
2023-03-16T02:42:26.656Z,1013.17
2023-03-16T02:43:26.676Z,1013.13
2023-03-16T02:44:26.698Z,1013.18
2023-03-16T02:45:26.702Z,1013.17
2023-03-16T02:46:26.765Z,1013.19
2023-03-16T02:47:26.737Z,1013.16
2023-03-16T02:48:26.752Z,1013.15
2023-03-16T02:49:26.765Z,1013.14
2023-03-16T02:50:27.034Z,1013.11
2023-03-16T02:51:26.800Z,1013.17
2023-03-16T02:52:26.816Z,1013.15
2023-03-16T02:53:26.836Z,1013.14
2023-03-16T02:54:26.845Z,1013.16
2023-03-16T02:55:26.866Z,1013.15
2023-03-16T02:56:26.876Z,1013.10
2023-03-16T02:57:26.907Z,1013.15
2023-03-16T02:58:26.915Z,1013.17
2023-03-16T02:59:26.924Z,1013.19
2023-03-16T03:00:27.267Z,1013.19
2023-03-16T03:01:26.958Z,1013.19
2023-03-16T03:02:26.974Z,1013.19
2023-03-16T03:03:27.024Z,1013.19
2023-03-16T03:04:27.000Z,1013.16
2023-03-16T03:05:27.019Z,1013.20
2023-03-16T03:06:27.031Z,1013.16
2023-03-16T03:07:27.047Z,1013.12
2023-03-16T03:08:27.075Z,1013.11
2023-03-16T03:09:27.077Z,1013.10
2023-03-16T03:10:27.294Z,1013.04
2023-03-16T03:11:27.112Z,1013.05
2023-03-16T03:12:27.128Z,1013.03
2023-03-16T03:13:27.146Z,1013.09
2023-03-16T03:14:27.162Z,1013.05
2023-03-16T03:15:27.172Z,1013.08
2023-03-16T03:16:27.248Z,1013.11
2023-03-16T03:17:27.201Z,1013.08
2023-03-16T03:18:27.243Z,1013.01
2023-03-16T03:19:27.233Z,1013.03
2023-03-16T03:20:27.566Z,1012.99
2023-03-16T03:21:27.271Z,1012.93
2023-03-16T03:22:27.287Z,1012.95
2023-03-16T03:23:27.295Z,1012.96
2023-03-16T03:24:27.312Z,1012.98
2023-03-16T03:25:27.326Z,1013.01
2023-03-16T03:26:27.342Z,1012.95
2023-03-16T03:27:27.394Z,1012.97
2023-03-16T03:28:27.396Z,1012.96
2023-03-16T03:29:27.390Z,1012.97
2023-03-16T03:30:27.759Z,1012.96
2023-03-16T03:31:27.443Z,1012.96
2023-03-16T03:32:27.473Z,1012.94
2023-03-16T03:33:27.465Z,1012.96
2023-03-16T03:34:27.469Z,1012.98
2023-03-16T03:35:27.523Z,1012.99
2023-03-16T03:36:27.502Z,1012.98
2023-03-16T03:37:27.510Z,1013.00
2023-03-16T03:38:27.541Z,1013.00
2023-03-16T03:39:27.544Z,1013.01
2023-03-16T03:40:27.851Z,1013.02
2023-03-16T03:41:27.612Z,1013.08
2023-03-16T03:42:27.586Z,1013.01
2023-03-16T03:43:27.606Z,1013.03
2023-03-16T03:44:27.635Z,1012.98
2023-03-16T03:45:27.651Z,1013.00
2023-03-16T03:46:27.858Z,1013.00
2023-03-16T03:47:27.691Z,1012.97
2023-03-16T03:48:27.682Z,1012.94
2023-03-16T03:49:27.699Z,1012.91
2023-03-16T03:50:27.955Z,1012.86
2023-03-16T03:51:27.728Z,1012.90
2023-03-16T03:52:27.739Z,1012.88
2023-03-16T03:53:27.763Z,1012.90
2023-03-16T03:54:27.778Z,1012.90
2023-03-16T03:55:27.789Z,1012.93
2023-03-16T03:56:27.807Z,1012.95
2023-03-16T03:57:27.821Z,1012.94
2023-03-16T03:58:27.835Z,1012.93
2023-03-16T03:59:27.850Z,1012.90
2023-03-16T04:00:28.118Z,1012.92
2023-03-16T04:01:27.887Z,1012.85
2023-03-16T04:02:28.108Z,1012.85
2023-03-16T04:03:27.958Z,1012.86
2023-03-16T04:04:27.931Z,1012.83
2023-03-16T04:05:27.945Z,1012.83
2023-03-16T04:06:27.959Z,1012.82
2023-03-16T04:07:27.974Z,1012.82
2023-03-16T04:08:27.998Z,1012.80
2023-03-16T04:09:28.006Z,1012.82
2023-03-16T04:10:28.207Z,1012.78
2023-03-16T04:11:28.036Z,1012.79
2023-03-16T04:12:28.062Z,1012.81
2023-03-16T04:13:28.072Z,1012.86
2023-03-16T04:14:28.083Z,1012.84
2023-03-16T04:15:28.100Z,1012.82
2023-03-16T04:16:28.152Z,1012.79
2023-03-16T04:17:28.134Z,1012.82
2023-03-16T04:18:28.154Z,1012.81
2023-03-16T04:19:28.166Z,1012.81
2023-03-16T04:20:28.570Z,1012.79
2023-03-16T04:21:28.197Z,1012.80
2023-03-16T04:22:28.210Z,1012.76
2023-03-16T04:23:28.226Z,1012.77
2023-03-16T04:24:28.242Z,1012.80
2023-03-16T04:25:28.266Z,1012.79
2023-03-16T04:26:28.273Z,1012.79
2023-03-16T04:27:28.289Z,1012.79
2023-03-16T04:28:28.312Z,1012.84
2023-03-16T04:29:28.319Z,1012.80
2023-03-16T04:30:28.582Z,1012.82
2023-03-16T04:31:28.362Z,1012.78
2023-03-16T04:32:28.402Z,1012.75
2023-03-16T04:33:28.408Z,1012.68
2023-03-16T04:34:28.445Z,1012.66
2023-03-16T04:35:28.426Z,1012.68
2023-03-16T04:36:28.440Z,1012.70
2023-03-16T04:37:28.456Z,1012.72
2023-03-16T04:38:28.469Z,1012.72
2023-03-16T04:39:28.499Z,1012.70
2023-03-16T04:40:28.883Z,1012.70
2023-03-16T04:41:28.518Z,1012.66
2023-03-16T04:42:28.532Z,1012.64
2023-03-16T04:43:28.551Z,1012.62
2023-03-16T04:44:28.571Z,1012.55
2023-03-16T04:45:28.581Z,1012.52
2023-03-16T04:46:28.615Z,1012.58
2023-03-16T04:47:28.613Z,1012.51
2023-03-16T04:48:28.637Z,1012.59
2023-03-16T04:49:28.645Z,1012.62
2023-03-16T04:50:29.001Z,1012.57
2023-03-16T04:51:28.682Z,1012.61
2023-03-16T04:52:28.696Z,1012.65
2023-03-16T04:53:28.707Z,1012.60
2023-03-16T04:54:28.730Z,1012.59
2023-03-16T04:55:28.940Z,1012.56
2023-03-16T04:56:28.757Z,1012.57
2023-03-16T04:57:28.773Z,1012.51
2023-03-16T04:58:28.790Z,1012.52
2023-03-16T04:59:28.811Z,1012.50
2023-03-16T05:00:29.189Z,1012.50
2023-03-16T05:01:28.870Z,1012.51
2023-03-16T05:02:28.856Z,1012.50
2023-03-16T05:03:28.870Z,1012.50
2023-03-16T05:04:28.883Z,1012.53
2023-03-16T05:05:28.933Z,1012.52
2023-03-16T05:06:28.918Z,1012.51
2023-03-16T05:07:28.932Z,1012.55
2023-03-16T05:08:28.951Z,1012.59
2023-03-16T05:09:28.981Z,1012.49
2023-03-16T05:10:29.384Z,1012.52
2023-03-16T05:11:29.001Z,1012.49
2023-03-16T05:12:29.028Z,1012.44
2023-03-16T05:13:29.031Z,1012.46
2023-03-16T05:14:29.046Z,1012.45
2023-03-16T05:15:29.063Z,1012.48
2023-03-16T05:16:29.112Z,1012.50
2023-03-16T05:17:29.101Z,1012.45
2023-03-16T05:18:29.113Z,1012.42
2023-03-16T05:19:29.133Z,1012.45
2023-03-16T05:20:29.371Z,1012.44
2023-03-16T05:21:29.162Z,1012.47
2023-03-16T05:22:29.193Z,1012.43
2023-03-16T05:23:29.198Z,1012.40
2023-03-16T05:24:29.224Z,1012.35
2023-03-16T05:25:29.232Z,1012.37
2023-03-16T05:26:29.242Z,1012.33
2023-03-16T05:27:29.258Z,1012.34
2023-03-16T05:28:29.276Z,1012.41
2023-03-16T05:29:29.289Z,1012.38
2023-03-16T05:30:29.951Z,1012.42
2023-03-16T05:31:29.346Z,1012.37
2023-03-16T05:32:29.345Z,1012.39
2023-03-16T05:33:29.361Z,1012.40
2023-03-16T05:34:29.372Z,1012.41
2023-03-16T05:35:29.474Z,1012.37
2023-03-16T05:36:29.404Z,1012.40
2023-03-16T05:37:29.424Z,1012.36
2023-03-16T05:38:29.449Z,1012.36
2023-03-16T05:39:29.456Z,1012.31
2023-03-16T05:40:29.813Z,1012.31
2023-03-16T05:41:29.492Z,1012.28
2023-03-16T05:42:29.520Z,1012.30
2023-03-16T05:43:29.531Z,1012.31
2023-03-16T05:44:29.544Z,1012.32
2023-03-16T05:45:29.564Z,1012.33
2023-03-16T05:46:29.606Z,1012.32
2023-03-16T05:47:29.594Z,1012.30
2023-03-16T05:48:29.608Z,1012.30
2023-03-16T05:49:29.620Z,1012.28
2023-03-16T05:50:30.030Z,1012.27
2023-03-16T05:51:29.664Z,1012.27
2023-03-16T05:52:29.689Z,1012.26
2023-03-16T05:53:29.703Z,1012.24
2023-03-16T05:54:29.711Z,1012.27
2023-03-16T05:55:29.726Z,1012.24
2023-03-16T05:56:29.739Z,1012.27
2023-03-16T05:57:29.757Z,1012.27
2023-03-16T05:58:29.773Z,1012.24
2023-03-16T05:59:29.791Z,1012.23
2023-03-16T06:00:30.213Z,1012.25
2023-03-16T06:01:29.829Z,1012.28
2023-03-16T06:02:29.924Z,1012.24
2023-03-16T06:03:29.852Z,1012.20
2023-03-16T06:04:29.889Z,1012.25
2023-03-16T06:05:29.892Z,1012.20
2023-03-16T06:06:29.915Z,1012.17
2023-03-16T06:07:29.923Z,1012.16
2023-03-16T06:08:29.942Z,1012.18
2023-03-16T06:09:29.971Z,1012.15
2023-03-16T06:10:30.443Z,1012.18
2023-03-16T06:11:29.995Z,1012.11
2023-03-16T06:12:30.004Z,1012.10
2023-03-16T06:13:30.047Z,1012.11
2023-03-16T06:14:30.051Z,1012.10
2023-03-16T06:15:30.054Z,1012.10
2023-03-16T06:16:37.314Z,1012.09
2023-03-16T06:18:34.561Z,1012.14
2023-03-16T06:19:34.078Z,1012.12
2023-03-16T06:21:38.134Z,1012.11
2023-03-16T06:22:38.084Z,1012.14
2023-03-16T06:23:38.106Z,1012.11
2023-03-16T06:24:38.119Z,1012.14
2023-03-16T06:25:40.695Z,1012.12
2023-03-16T06:26:38.161Z,1012.11
2023-03-16T06:27:38.171Z,1012.14
2023-03-16T06:28:38.188Z,1012.12
2023-03-16T06:29:38.205Z,1012.17
2023-03-16T06:30:38.222Z,1012.15
2023-03-16T06:31:38.392Z,1012.12
2023-03-16T06:32:38.332Z,1012.11
2023-03-16T06:33:38.272Z,1012.07
2023-03-16T06:34:38.487Z,1012.05
2023-03-16T06:35:38.350Z,1012.09
2023-03-16T06:36:38.327Z,1012.09
2023-03-16T06:37:38.350Z,1012.08
2023-03-16T06:38:38.366Z,1012.09
2023-03-16T06:39:38.380Z,1012.08
2023-03-16T06:40:38.422Z,1012.07
2023-03-16T06:41:38.419Z,1012.05
2023-03-16T06:42:38.427Z,1012.05
2023-03-16T06:43:38.473Z,1012.04
2023-03-16T06:44:38.487Z,1012.04
2023-03-16T06:45:38.519Z,1012.08
2023-03-16T06:46:38.498Z,1012.08
2023-03-16T06:47:38.514Z,1012.08
2023-03-16T06:48:38.542Z,1012.08
2023-03-16T06:49:38.550Z,1012.09
2023-03-16T06:50:38.594Z,1012.12
2023-03-16T06:51:38.583Z,1012.09
2023-03-16T06:52:38.603Z,1012.12
2023-03-16T06:53:38.621Z,1012.13
2023-03-16T06:54:38.638Z,1012.13
2023-03-16T06:55:38.663Z,1012.11
2023-03-16T06:56:38.673Z,1012.10
2023-03-16T06:57:38.690Z,1012.11
2023-03-16T06:58:38.719Z,1012.11
2023-03-16T06:59:38.731Z,1012.10
2023-03-16T07:00:38.745Z,1012.10
2023-03-16T07:01:38.765Z,1012.13
2023-03-16T07:02:38.784Z,1012.12
2023-03-16T07:03:38.800Z,1012.14
2023-03-16T07:04:38.863Z,1012.20
2023-03-16T07:05:38.835Z,1012.16
2023-03-16T07:06:38.854Z,1012.16
2023-03-16T07:07:38.869Z,1012.15
2023-03-16T07:08:38.891Z,1012.18
2023-03-16T07:09:41.564Z,1012.19
2023-03-16T07:10:38.923Z,1012.21
2023-03-16T07:11:38.943Z,1012.19
2023-03-16T07:12:38.962Z,1012.24
2023-03-16T07:13:38.974Z,1012.17
2023-03-16T07:14:38.999Z,1012.23
2023-03-16T07:15:39.011Z,1012.25
2023-03-16T07:16:39.090Z,1012.27
2023-03-16T07:17:39.052Z,1012.28
2023-03-16T07:18:39.100Z,1012.25
2023-03-16T07:19:39.097Z,1012.24
2023-03-16T07:20:39.108Z,1012.26
2023-03-16T07:21:39.182Z,1012.23
2023-03-16T07:22:39.138Z,1012.26
2023-03-16T07:23:39.155Z,1012.29
2023-03-16T07:24:39.203Z,1012.28
2023-03-16T07:25:39.196Z,1012.31
2023-03-16T07:26:39.225Z,1012.31
2023-03-16T07:27:39.231Z,1012.36
2023-03-16T07:28:39.274Z,1012.40
2023-03-16T07:29:39.267Z,1012.37
2023-03-16T07:30:39.284Z,1012.41
2023-03-16T07:31:39.346Z,1012.43
2023-03-16T07:32:39.342Z,1012.46
2023-03-16T07:33:39.338Z,1012.46
2023-03-16T07:34:39.359Z,1012.48
2023-03-16T07:35:39.407Z,1012.48
2023-03-16T07:36:39.395Z,1012.54
2023-03-16T07:37:39.420Z,1012.50
2023-03-16T07:38:39.434Z,1012.52
2023-03-16T07:39:39.464Z,1012.53
2023-03-16T07:40:39.471Z,1012.56
2023-03-16T07:41:39.490Z,1012.53
2023-03-16T07:42:39.506Z,1012.56
2023-03-16T07:43:39.529Z,1012.50
2023-03-16T07:44:39.549Z,1012.50
2023-03-16T07:45:39.672Z,1012.52
2023-03-16T07:46:39.593Z,1012.48
2023-03-16T07:47:39.603Z,1012.49
2023-03-16T07:48:39.625Z,1012.49
2023-03-16T07:49:39.640Z,1012.46
2023-03-16T07:50:39.662Z,1012.46
2023-03-16T07:51:39.687Z,1012.47
2023-03-16T07:52:39.696Z,1012.43
2023-03-16T07:53:39.724Z,1012.45
2023-03-16T07:54:39.733Z,1012.44
2023-03-16T07:55:39.759Z,1012.43
2023-03-16T07:56:48.890Z,1012.45
2023-03-16T07:57:39.797Z,1012.43
2023-03-16T07:58:39.824Z,1012.43
2023-03-16T07:59:39.847Z,1012.45
2023-03-16T08:00:39.870Z,1012.43
2023-03-16T08:01:39.868Z,1012.41
2023-03-16T08:02:39.918Z,1012.43
2023-03-16T08:03:39.976Z,1012.42
2023-03-16T08:04:39.929Z,1012.40
2023-03-16T08:05:39.952Z,1012.39
2023-03-16T08:06:39.968Z,1012.34
2023-03-16T08:07:39.992Z,1012.35
2023-03-16T08:08:40.016Z,1012.36
2023-03-16T08:09:40.031Z,1012.35
2023-03-16T08:10:40.048Z,1012.30
2023-03-16T08:11:40.074Z,1012.28
2023-03-16T08:12:40.175Z,1012.31
2023-03-16T08:13:40.109Z,1012.31
2023-03-16T08:14:40.125Z,1012.26
2023-03-16T08:15:40.233Z,1012.30
2023-03-16T08:16:40.173Z,1012.32
2023-03-16T08:17:40.189Z,1012.36
2023-03-16T08:18:40.208Z,1012.38
2023-03-16T08:19:40.228Z,1012.36
2023-03-16T08:20:40.253Z,1012.42
2023-03-16T08:21:57.659Z,1012.44
2023-03-16T08:22:40.300Z,1012.40
2023-03-16T08:23:40.347Z,1012.43
2023-03-16T08:24:40.335Z,1012.45
2023-03-16T08:25:40.351Z,1012.48
2023-03-16T08:26:40.370Z,1012.45
2023-03-16T08:27:40.389Z,1012.45
2023-03-16T08:28:40.441Z,1012.39
2023-03-16T08:29:40.434Z,1012.43
2023-03-16T08:30:40.454Z,1012.42
2023-03-16T08:31:40.583Z,1012.40
2023-03-16T08:32:40.535Z,1012.43
2023-03-16T08:33:40.543Z,1012.43
2023-03-16T08:34:40.534Z,1012.43
2023-03-16T08:35:40.619Z,1012.45
2023-03-16T08:36:40.577Z,1012.47
2023-03-16T08:37:40.598Z,1012.43
2023-03-16T08:38:40.617Z,1012.45
2023-03-16T08:39:40.639Z,1012.46
2023-03-16T08:40:40.661Z,1012.47
2023-03-16T08:41:40.757Z,1012.41
2023-03-16T08:42:40.702Z,1012.47
2023-03-16T08:43:40.721Z,1012.43
2023-03-16T08:44:40.745Z,1012.47
2023-03-16T08:45:40.760Z,1012.43
2023-03-16T08:46:40.944Z,1012.40
2023-03-16T08:47:40.805Z,1012.41
2023-03-16T08:48:40.826Z,1012.42
2023-03-16T08:49:40.902Z,1012.44
2023-03-16T08:50:40.862Z,1012.43
2023-03-16T08:51:40.894Z,1012.44
2023-03-16T08:52:40.911Z,1012.46
2023-03-16T08:53:40.926Z,1012.43
2023-03-16T08:54:44.946Z,1012.43
2023-03-16T08:55:40.972Z,1012.42
2023-03-16T08:56:40.979Z,1012.46
2023-03-16T08:57:41.025Z,1012.44
2023-03-16T08:58:41.034Z,1012.47
2023-03-16T08:59:41.056Z,1012.44
2023-03-16T09:00:41.075Z,1012.48
2023-03-16T09:01:41.151Z,1012.44
2023-03-16T09:02:41.112Z,1012.42
2023-03-16T09:03:41.138Z,1012.39
2023-03-16T09:04:41.410Z,1012.44
2023-03-16T09:05:41.189Z,1012.39
2023-03-16T09:06:41.197Z,1012.40
2023-03-16T09:07:41.219Z,1012.33
2023-03-16T09:08:41.242Z,1012.36
2023-03-16T09:09:41.264Z,1012.38
2023-03-16T09:10:41.286Z,1012.37
2023-03-16T09:11:41.307Z,1012.41
2023-03-16T09:12:41.336Z,1012.40
2023-03-16T09:13:41.354Z,1012.35
2023-03-16T09:14:41.370Z,1012.34
2023-03-16T09:15:41.396Z,1012.39
2023-03-16T09:16:41.446Z,1012.35
2023-03-16T09:17:41.436Z,1012.34
2023-03-16T09:18:41.456Z,1012.36
2023-03-16T09:19:51.237Z,1012.37
2023-03-16T09:20:41.505Z,1012.33
2023-03-16T09:21:41.523Z,1012.32
2023-03-16T09:22:41.544Z,1012.32
2023-03-16T09:23:41.567Z,1012.31
2023-03-16T09:24:41.632Z,1012.33
2023-03-16T09:25:41.611Z,1012.35
2023-03-16T09:26:41.714Z,1012.31
2023-03-16T09:27:41.664Z,1012.32
2023-03-16T09:28:41.681Z,1012.29
2023-03-16T09:29:41.696Z,1012.26
2023-03-16T09:30:41.720Z,1012.27
2023-03-16T09:31:41.785Z,1012.27
2023-03-16T09:32:41.791Z,1012.24
2023-03-16T09:33:41.784Z,1012.26
2023-03-16T09:34:41.808Z,1012.28
2023-03-16T09:35:41.859Z,1012.27
2023-03-16T09:36:41.860Z,1012.28
2023-03-16T09:37:45.354Z,1012.28
2023-03-16T09:38:41.896Z,1012.29
2023-03-16T09:39:41.919Z,1012.32
2023-03-16T09:40:41.949Z,1012.21
2023-03-16T09:41:41.965Z,1012.18
2023-03-16T09:42:41.991Z,1012.24
2023-03-16T09:43:42.011Z,1012.18
2023-03-16T09:44:42.034Z,1012.18
2023-03-16T09:45:42.081Z,1012.14
2023-03-16T09:46:42.079Z,1012.20
2023-03-16T09:47:42.103Z,1012.16
2023-03-16T09:48:42.126Z,1012.20
2023-03-16T09:49:42.150Z,1012.20
2023-03-16T09:50:48.667Z,1012.16
2023-03-16T09:51:42.190Z,1012.17
2023-03-16T09:52:42.214Z,1012.24
2023-03-16T09:53:42.245Z,1012.23
2023-03-16T09:54:42.294Z,1012.26
2023-03-16T09:55:42.291Z,1012.28
2023-03-16T09:56:42.314Z,1012.23
2023-03-16T09:57:42.367Z,1012.26
2023-03-16T09:58:42.355Z,1012.24
2023-03-16T09:59:42.375Z,1012.27
2023-03-16T10:00:42.435Z,1012.29
2023-03-16T10:01:42.424Z,1012.24
2023-03-16T10:02:42.441Z,1012.26
2023-03-16T10:03:42.502Z,1012.23
2023-03-16T10:04:43.826Z,1012.25
2023-03-16T10:05:42.511Z,1012.26
2023-03-16T10:06:42.534Z,1012.29
2023-03-16T10:07:42.577Z,1012.20
2023-03-16T10:08:42.582Z,1012.17
2023-03-16T10:09:42.604Z,1012.20
2023-03-16T10:10:42.627Z,1012.26
2023-03-16T10:11:42.652Z,1012.21
2023-03-16T10:12:42.672Z,1012.22
2023-03-16T10:13:42.695Z,1012.27
2023-03-16T10:14:42.756Z,1012.22
2023-03-16T10:15:42.741Z,1012.27
2023-03-16T10:16:42.782Z,1012.26
2023-03-16T10:17:42.796Z,1012.33
2023-03-16T10:18:42.815Z,1012.30
2023-03-16T10:19:42.835Z,1012.34
2023-03-16T10:20:42.860Z,1012.25
2023-03-16T10:21:42.883Z,1012.24
2023-03-16T10:22:42.926Z,1012.22
2023-03-16T10:23:42.931Z,1012.22
2023-03-16T10:24:42.950Z,1012.19
2023-03-16T10:25:42.974Z,1012.22
2023-03-16T10:26:42.995Z,1012.17
2023-03-16T10:27:43.019Z,1012.16
2023-03-16T10:28:43.048Z,1012.17
2023-03-16T10:29:43.075Z,1012.20
2023-03-16T10:30:43.988Z,1012.16
2023-03-16T10:31:43.111Z,1012.14
2023-03-16T10:32:43.168Z,1012.14
2023-03-16T10:33:43.160Z,1012.15
2023-03-16T10:34:43.182Z,1012.13
2023-03-16T10:35:43.214Z,1012.19
2023-03-16T10:36:43.278Z,1012.21
2023-03-16T10:37:43.253Z,1012.21
2023-03-16T10:38:43.277Z,1012.22
2023-03-16T10:39:43.311Z,1012.14
2023-03-16T10:40:43.322Z,1012.17
2023-03-16T10:41:43.346Z,1012.22
2023-03-16T10:42:43.375Z,1012.23
2023-03-16T10:43:43.397Z,1012.22
2023-03-16T10:44:43.421Z,1012.23
2023-03-16T10:45:43.599Z,1012.25
2023-03-16T10:46:43.536Z,1012.23
2023-03-16T10:47:43.500Z,1012.24
2023-03-16T10:48:43.515Z,1012.23
2023-03-16T10:49:43.545Z,1012.21
2023-03-16T10:50:43.565Z,1012.22
2023-03-16T10:51:43.592Z,1012.21
2023-03-16T10:52:43.613Z,1012.18
2023-03-16T10:53:43.639Z,1012.11
2023-03-16T10:54:43.663Z,1012.15
2023-03-16T10:55:43.696Z,1012.10
2023-03-16T10:56:43.712Z,1012.08
2023-03-16T10:57:43.768Z,1012.02
2023-03-16T10:58:43.757Z,1012.04
2023-03-16T10:59:43.782Z,1012.02
2023-03-16T11:00:43.804Z,1012.09
2023-03-16T11:01:43.853Z,1012.03
2023-03-16T11:02:43.858Z,1012.03
2023-03-16T11:03:43.878Z,1011.97
2023-03-16T11:04:44.044Z,1011.98
2023-03-16T11:05:43.930Z,1011.93
2023-03-16T11:06:43.946Z,1011.94
2023-03-16T11:07:43.978Z,1011.99
2023-03-16T11:08:43.998Z,1011.97
2023-03-16T11:09:44.020Z,1011.93
2023-03-16T11:10:55.205Z,1011.95
2023-03-16T11:11:44.070Z,1011.93
2023-03-16T11:12:44.091Z,1011.97
2023-03-16T11:13:44.122Z,1011.98
2023-03-16T11:14:44.146Z,1011.92
2023-03-16T11:15:44.170Z,1011.98
2023-03-16T11:16:44.215Z,1011.98
2023-03-16T11:17:44.212Z,1011.99
2023-03-16T11:18:44.234Z,1011.96
2023-03-16T11:19:44.256Z,1011.98
2023-03-16T11:20:44.281Z,1011.92
2023-03-16T11:21:44.302Z,1011.90
2023-03-16T11:22:44.330Z,1011.94
2023-03-16T11:23:44.352Z,1011.92
2023-03-16T11:24:44.377Z,1011.93
2023-03-16T11:25:44.400Z,1011.90
2023-03-16T11:26:44.424Z,1011.88
2023-03-16T11:27:44.448Z,1011.87
2023-03-16T11:28:44.485Z,1011.93
2023-03-16T11:29:44.497Z,1011.94
2023-03-16T11:30:44.535Z,1011.92
2023-03-16T11:31:44.545Z,1011.93
2023-03-16T11:32:44.628Z,1011.92
2023-03-16T11:33:44.588Z,1011.93
2023-03-16T11:34:44.612Z,1011.91
2023-03-16T11:35:58.064Z,1011.88
2023-03-16T11:36:44.664Z,1011.85
2023-03-16T11:37:44.684Z,1011.83
2023-03-16T11:38:44.712Z,1011.83
2023-03-16T11:39:44.737Z,1011.85
2023-03-16T11:40:44.754Z,1011.79
2023-03-16T11:41:44.776Z,1011.80
2023-03-16T11:42:44.803Z,1011.80
2023-03-16T11:43:44.832Z,1011.78
2023-03-16T11:44:44.857Z,1011.82
2023-03-16T11:45:44.902Z,1011.77
2023-03-16T11:46:44.900Z,1011.73
2023-03-16T11:47:44.930Z,1011.75
2023-03-16T11:48:44.948Z,1011.74
2023-03-16T11:49:44.971Z,1011.72
2023-03-16T11:50:45.003Z,1011.72
2023-03-16T11:51:45.018Z,1011.71
2023-03-16T11:52:45.670Z,1011.71
2023-03-16T11:53:45.065Z,1011.72
2023-03-16T11:54:45.094Z,1011.71
2023-03-16T11:55:45.115Z,1011.72
2023-03-16T11:56:45.141Z,1011.69
2023-03-16T11:57:45.182Z,1011.67
2023-03-16T11:58:45.191Z,1011.66
2023-03-16T11:59:51.943Z,1011.64
2023-03-16T12:00:45.236Z,1011.66
2023-03-16T12:01:57.946Z,1011.63
2023-03-16T12:02:45.522Z,1011.67
2023-03-16T12:03:45.338Z,1011.63
2023-03-16T12:04:45.332Z,1011.55
2023-03-16T12:05:46.046Z,1011.50
2023-03-16T12:06:45.374Z,1011.48
2023-03-16T12:07:45.402Z,1011.46